sensor_id;sensor_type;location;lat;lon;timestamp;pressure;altitude;pressure_sealevel;temperature;humidity
78685;BME280;68002;52.310;6.990;2023-06-22T00:02:20;101575.63;;;19.23;69.11
78685;BME280;68002;52.310;6.990;2023-06-22T00:04:45;101571.75;;;19.18;69.38
78685;BME280;68002;52.310;6.990;2023-06-22T00:07:10;101579.22;;;19.16;69.99
78685;BME280;68002;52.310;6.990;2023-06-22T00:09:36;101575.03;;;19.13;70.02
78685;BME280;68002;52.310;6.990;2023-06-22T00:12:01;101578.91;;;19.19;70.02
78685;BME280;68002;52.310;6.990;2023-06-22T00:14:27;101574.47;;;19.18;69.99
78685;BME280;68002;52.310;6.990;2023-06-22T00:16:52;101571.44;;;19.21;70.11
78685;BME280;68002;52.310;6.990;2023-06-22T00:19:17;101564.47;;;19.18;70.32
78685;BME280;68002;52.310;6.990;2023-06-22T00:21:42;101565.50;;;19.17;70.44
78685;BME280;68002;52.310;6.990;2023-06-22T00:24:08;101560.91;;;19.18;70.39
78685;BME280;68002;52.310;6.990;2023-06-22T00:26:33;101555.66;;;19.16;70.40
78685;BME280;68002;52.310;6.990;2023-06-22T00:28:58;101554.00;;;19.15;70.12
78685;BME280;68002;52.310;6.990;2023-06-22T00:31:23;101564.66;;;19.17;70.19
78685;BME280;68002;52.310;6.990;2023-06-22T00:33:48;101559.75;;;19.12;70.43
78685;BME280;68002;52.310;6.990;2023-06-22T00:36:14;101554.03;;;19.07;70.48
78685;BME280;68002;52.310;6.990;2023-06-22T00:38:39;101558.81;;;18.97;71.32
78685;BME280;68002;52.310;6.990;2023-06-22T00:41:04;101550.34;;;18.92;71.67
78685;BME280;68002;52.310;6.990;2023-06-22T00:43:29;101554.78;;;18.93;71.88
78685;BME280;68002;52.310;6.990;2023-06-22T00:45:55;101534.09;;;18.92;72.14
78685;BME280;68002;52.310;6.990;2023-06-22T00:48:21;101539.88;;;18.89;72.14
78685;BME280;68002;52.310;6.990;2023-06-22T00:50:46;101548.69;;;18.91;72.21
78685;BME280;68002;52.310;6.990;2023-06-22T00:53:11;101540.72;;;18.89;72.35
78685;BME280;68002;52.310;6.990;2023-06-22T00:55:44;101528.66;;;18.92;72.69
78685;BME280;68002;52.310;6.990;2023-06-22T00:58:09;101528.66;;;18.92;72.57
78685;BME280;68002;52.310;6.990;2023-06-22T01:00:34;101539.88;;;18.89;72.90
78685;BME280;68002;52.310;6.990;2023-06-22T01:03:00;101532.41;;;18.91;72.95
78685;BME280;68002;52.310;6.990;2023-06-22T01:05:25;101537.66;;;18.92;72.79
78685;BME280;68002;52.310;6.990;2023-06-22T01:13:23;101541.22;;;18.85;72.90
78685;BME280;68002;52.310;6.990;2023-06-22T01:16:03;101533.66;;;18.80;73.85
78685;BME280;68002;52.310;6.990;2023-06-22T01:18:32;101551.22;;;18.84;73.18
78685;BME280;68002;52.310;6.990;2023-06-22T01:20:59;101535.31;;;18.81;73.18
78685;BME280;68002;52.310;6.990;2023-06-22T01:26:22;101540.94;;;18.72;73.80
78685;BME280;68002;52.310;6.990;2023-06-22T01:28:52;101540.13;;;18.71;74.06
78685;BME280;68002;52.310;6.990;2023-06-22T01:31:20;101533.34;;;18.67;74.12
78685;BME280;68002;52.310;6.990;2023-06-22T01:33:51;101532.19;;;18.62;74.04
78685;BME280;68002;52.310;6.990;2023-06-22T01:36:17;101534.72;;;18.55;74.39
78685;BME280;68002;52.310;6.990;2023-06-22T01:38:43;101532.72;;;18.49;74.72
78685;BME280;68002;52.310;6.990;2023-06-22T01:41:10;101539.81;;;18.50;74.86
78685;BME280;68002;52.310;6.990;2023-06-22T01:43:36;101541.19;;;18.46;75.02
78685;BME280;68002;52.310;6.990;2023-06-22T01:46:02;101529.53;;;18.46;75.32
78685;BME280;68002;52.310;6.990;2023-06-22T01:48:27;101537.97;;;18.43;75.61
78685;BME280;68002;52.310;6.990;2023-06-22T01:50:53;101528.81;;;18.36;75.94
78685;BME280;68002;52.310;6.990;2023-06-22T01:53:21;101538.47;;;18.38;76.08
78685;BME280;68002;52.310;6.990;2023-06-22T01:55:46;101531.53;;;18.36;76.26
78685;BME280;68002;52.310;6.990;2023-06-22T01:58:12;101526.09;;;18.36;76.39
78685;BME280;68002;52.310;6.990;2023-06-22T02:00:39;101526.09;;;18.36;76.05
78685;BME280;68002;52.310;6.990;2023-06-22T02:03:11;101524.75;;;18.32;76.37
78685;BME280;68002;52.310;6.990;2023-06-22T02:05:49;101537.63;;;18.30;76.28
78685;BME280;68002;52.310;6.990;2023-06-22T02:08:20;101528.19;;;18.26;76.82
78685;BME280;68002;52.310;6.990;2023-06-22T02:10:48;101525.63;;;18.24;76.78
78685;BME280;68002;52.310;6.990;2023-06-22T02:13:14;101522.09;;;18.24;77.37
78685;BME280;68002;52.310;6.990;2023-06-22T02:15:40;101522.75;;;18.26;77.12
78685;BME280;68002;52.310;6.990;2023-06-22T02:18:06;101527.16;;;18.27;77.35
78685;BME280;68002;52.310;6.990;2023-06-22T02:20:32;101526.66;;;18.31;77.23
78685;BME280;68002;52.310;6.990;2023-06-22T02:22:57;101526.47;;;18.33;76.88
78685;BME280;68002;52.310;6.990;2023-06-22T02:25:22;101529.19;;;18.33;77.18
78685;BME280;68002;52.310;6.990;2023-06-22T02:27:47;101533.56;;;18.34;77.30
78685;BME280;68002;52.310;6.990;2023-06-22T02:30:13;101530.19;;;18.32;77.41
78685;BME280;68002;52.310;6.990;2023-06-22T02:32:39;101525.63;;;18.24;77.36
78685;BME280;68002;52.310;6.990;2023-06-22T02:35:04;101523.59;;;18.26;77.31
78685;BME280;68002;52.310;6.990;2023-06-22T02:37:31;101529.34;;;18.23;77.52
78685;BME280;68002;52.310;6.990;2023-06-22T02:39:56;101527.81;;;18.21;77.94
78685;BME280;68002;52.310;6.990;2023-06-22T02:42:21;101531.56;;;18.20;78.01
78685;BME280;68002;52.310;6.990;2023-06-22T02:44:47;101525.47;;;18.18;77.94
78685;BME280;68002;52.310;6.990;2023-06-22T02:47:12;101523.44;;;18.20;77.83
78685;BME280;68002;52.310;6.990;2023-06-22T02:49:38;101520.72;;;18.20;77.87
78685;BME280;68002;52.310;6.990;2023-06-22T02:52:03;101520.72;;;18.20;77.90
78685;BME280;68002;52.310;6.990;2023-06-22T02:54:29;101522.41;;;18.21;77.77
78685;BME280;68002;52.310;6.990;2023-06-22T02:56:54;101533.06;;;18.22;77.82
78685;BME280;68002;52.310;6.990;2023-06-22T02:59:19;101539.16;;;18.24;77.62
78685;BME280;68002;52.310;6.990;2023-06-22T03:01:44;101534.09;;;18.21;77.84
78685;BME280;68002;52.310;6.990;2023-06-22T03:04:10;101533.06;;;18.22;77.61
78685;BME280;68002;52.310;6.990;2023-06-22T03:06:35;101533.91;;;18.23;77.70
78685;BME280;68002;52.310;6.990;2023-06-22T03:09:03;101527.81;;;18.21;77.46
78685;BME280;68002;52.310;6.990;2023-06-22T03:11:28;101530.22;;;18.16;78.05
78685;BME280;68002;52.310;6.990;2023-06-22T03:13:53;101526.47;;;18.17;77.95
78685;BME280;68002;52.310;6.990;2023-06-22T03:16:19;101525.31;;;18.11;78.08
78685;BME280;68002;52.310;6.990;2023-06-22T03:18:44;101514.13;;;18.06;77.94
78685;BME280;68002;52.310;6.990;2023-06-22T03:21:09;101524.47;;;18.02;78.77
78685;BME280;68002;52.310;6.990;2023-06-22T03:23:35;101530.56;;;18.04;78.95
78685;BME280;68002;52.310;6.990;2023-06-22T03:26:01;101531.59;;;18.03;79.02
78685;BME280;68002;52.310;6.990;2023-06-22T03:28:26;101527.00;;;18.04;78.66
78685;BME280;68002;52.310;6.990;2023-06-22T03:30:51;101528.03;;;18.03;78.82
78685;BME280;68002;52.310;6.990;2023-06-22T03:33:17;101519.56;;;17.98;78.84
78685;BME280;68002;52.310;6.990;2023-06-22T03:35:42;101521.06;;;18.00;78.72
78685;BME280;68002;52.310;6.990;2023-06-22T03:38:07;101523.09;;;17.98;79.34
78685;BME280;68002;52.310;6.990;2023-06-22T03:40:32;101518.53;;;17.99;79.39
78685;BME280;68002;52.310;6.990;2023-06-22T03:42:58;101525.66;;;18.00;79.45
78685;BME280;68002;52.310;6.990;2023-06-22T03:45:23;101533.63;;;18.01;79.30
78685;BME280;68002;52.310;6.990;2023-06-22T03:47:48;101517.69;;;17.98;79.37
78685;BME280;68002;52.310;6.990;2023-06-22T03:50:13;101520.91;;;18.02;79.71
78685;BME280;68002;52.310;6.990;2023-06-22T03:52:39;101520.25;;;18.00;79.10
78685;BME280;68002;52.310;6.990;2023-06-22T03:55:04;101515.34;;;18.03;79.61
78685;BME280;68002;52.310;6.990;2023-06-22T03:57:30;101523.63;;;18.10;79.19
78685;BME280;68002;52.310;6.990;2023-06-22T03:59:56;101522.94;;;18.08;79.48
78685;BME280;68002;52.310;6.990;2023-06-22T04:02:21;101509.56;;;18.06;79.45
78685;BME280;68002;52.310;6.990;2023-06-22T04:04:47;101520.22;;;18.08;79.58
78685;BME280;68002;52.310;6.990;2023-06-22T04:07:12;101516.34;;;18.11;79.85
78685;BME280;68002;52.310;6.990;2023-06-22T04:09:37;101509.91;;;18.12;79.82
78685;BME280;68002;52.310;6.990;2023-06-22T04:12:03;101511.44;;;18.14;79.76
78685;BME280;68002;52.310;6.990;2023-06-22T04:14:28;101507.69;;;18.15;79.51
78685;BME280;68002;52.310;6.990;2023-06-22T04:16:53;101511.59;;;18.13;80.26
78685;BME280;68002;52.310;6.990;2023-06-22T04:19:18;101511.25;;;18.16;80.11
78685;BME280;68002;52.310;6.990;2023-06-22T04:21:44;101512.44;;;18.21;80.07
78685;BME280;68002;52.310;6.990;2023-06-22T04:24:10;101514.28;;;18.21;79.78
78685;BME280;68002;52.310;6.990;2023-06-22T04:26:35;101512.06;;;18.24;80.02
78685;BME280;68002;52.310;6.990;2023-06-22T04:29:00;101519.03;;;18.27;79.61
78685;BME280;68002;52.310;6.990;2023-06-22T04:31:26;101525.13;;;18.29;79.26
78685;BME280;68002;52.310;6.990;2023-06-22T04:33:51;101518.66;;;18.30;79.67
78685;BME280;68002;52.310;6.990;2023-06-22T04:36:16;101516.13;;;18.36;79.26
78685;BME280;68002;52.310;6.990;2023-06-22T04:38:41;101511.06;;;18.41;79.06
78685;BME280;68002;52.310;6.990;2023-06-22T04:41:06;101503.25;;;18.38;78.80
78685;BME280;68002;52.310;6.990;2023-06-22T04:43:33;101504.75;;;18.41;78.91
78685;BME280;68002;52.310;6.990;2023-06-22T04:45:59;101506.50;;;18.42;78.63
78685;BME280;68002;52.310;6.990;2023-06-22T04:48:24;101504.44;;;18.36;78.70
78685;BME280;68002;52.310;6.990;2023-06-22T04:50:49;101505.13;;;18.38;78.34
78685;BME280;68002;52.310;6.990;2023-06-22T04:53:14;101495.31;;;18.37;78.56
78685;BME280;68002;52.310;6.990;2023-06-22T04:55:40;101493.47;;;18.29;78.63
78685;BME280;68002;52.310;6.990;2023-06-22T04:58:05;101496.84;;;18.31;78.68
78685;BME280;68002;52.310;6.990;2023-06-22T05:00:31;101499.88;;;18.28;78.85
78685;BME280;68002;52.310;6.990;2023-06-22T05:02:56;101499.69;;;18.30;78.54
78685;BME280;68002;52.310;6.990;2023-06-22T05:05:22;101498.34;;;18.34;78.69
78685;BME280;68002;52.310;6.990;2023-06-22T05:07:47;101496.13;;;18.37;78.70
78685;BME280;68002;52.310;6.990;2023-06-22T05:10:12;101493.75;;;18.50;78.40
78685;BME280;68002;52.310;6.990;2023-06-22T05:12:39;101493.75;;;18.58;77.92
78685;BME280;68002;52.310;6.990;2023-06-22T05:15:06;101496.25;;;18.68;77.85
78685;BME280;68002;52.310;6.990;2023-06-22T05:17:31;101488.88;;;18.84;77.27
78685;BME280;68002;52.310;6.990;2023-06-22T05:19:56;101487.84;;;18.93;76.71
78685;BME280;68002;52.310;6.990;2023-06-22T05:22:22;101496.28;;;18.98;76.51
78685;BME280;68002;52.310;6.990;2023-06-22T05:24:47;101501.34;;;19.01;76.22
78685;BME280;68002;52.310;6.990;2023-06-22T05:27:13;101500.75;;;19.14;75.61
78685;BME280;68002;52.310;6.990;2023-06-22T05:29:39;101493.66;;;19.13;75.42
78685;BME280;68002;52.310;6.990;2023-06-22T05:32:05;101497.81;;;19.24;75.57
78685;BME280;68002;52.310;6.990;2023-06-22T05:34:30;101502.69;;;19.36;74.79
78685;BME280;68002;52.310;6.990;2023-06-22T05:36:55;101489.59;;;19.40;74.13
78685;BME280;68002;52.310;6.990;2023-06-22T05:39:21;101496.91;;;19.39;74.27
78685;BME280;68002;52.310;6.990;2023-06-22T05:41:46;101498.16;;;19.51;73.84
78685;BME280;68002;52.310;6.990;2023-06-22T05:44:12;101498.03;;;19.67;73.29
78685;BME280;68002;52.310;6.990;2023-06-22T05:46:40;101493.09;;;19.71;72.51
78685;BME280;68002;52.310;6.990;2023-06-22T05:49:06;101485.25;;;19.76;72.46
78685;BME280;68002;52.310;6.990;2023-06-22T05:51:31;101483.97;;;19.86;72.34
78685;BME280;68002;52.310;6.990;2023-06-22T05:53:56;101493.63;;;20.03;71.26
78685;BME280;68002;52.310;6.990;2023-06-22T05:56:22;101494.41;;;20.12;71.64
78685;BME280;68002;52.310;6.990;2023-06-22T05:58:47;101484.94;;;20.31;70.89
78685;BME280;68002;52.310;6.990;2023-06-22T06:01:12;101490.91;;;20.41;69.38
78685;BME280;68002;52.310;6.990;2023-06-22T06:03:37;101494.94;;;20.45;69.47
78685;BME280;68002;52.310;6.990;2023-06-22T06:06:02;101500.47;;;20.66;69.44
78685;BME280;68002;52.310;6.990;2023-06-22T06:08:28;101497.91;;;20.79;68.19
78685;BME280;68002;52.310;6.990;2023-06-22T06:10:53;101497.91;;;20.93;68.29
78685;BME280;68002;52.310;6.990;2023-06-22T06:13:18;101500.53;;;21.16;67.51
78685;BME280;68002;52.310;6.990;2023-06-22T06:15:43;101503.44;;;21.36;67.06
78685;BME280;68002;52.310;6.990;2023-06-22T06:18:09;101502.44;;;21.58;66.51
78685;BME280;68002;52.310;6.990;2023-06-22T06:20:34;101499.00;;;21.70;65.03
78685;BME280;68002;52.310;6.990;2023-06-22T06:22:59;101503.94;;;21.81;64.78
78685;BME280;68002;52.310;6.990;2023-06-22T06:25:24;101496.97;;;22.00;63.92
78685;BME280;68002;52.310;6.990;2023-06-22T06:27:51;101508.78;;;22.07;63.82
78685;BME280;68002;52.310;6.990;2023-06-22T06:30:18;101508.31;;;22.04;61.84
78685;BME280;68002;52.310;6.990;2023-06-22T06:32:44;101497.06;;;22.07;61.77
78685;BME280;68002;52.310;6.990;2023-06-22T06:35:09;101494.56;;;22.12;61.41
78685;BME280;68002;52.310;6.990;2023-06-22T06:37:39;101488.59;;;22.29;62.01
78685;BME280;68002;52.310;6.990;2023-06-22T06:40:08;101492.38;;;22.56;60.97
78685;BME280;68002;52.310;6.990;2023-06-22T06:42:34;101483.66;;;22.73;60.80
78685;BME280;68002;52.310;6.990;2023-06-22T06:44:59;101473.94;;;23.05;59.54
78685;BME280;68002;52.310;6.990;2023-06-22T06:47:24;101477.09;;;23.15;58.71
78685;BME280;68002;52.310;6.990;2023-06-22T06:49:50;101485.56;;;23.33;58.88
78685;BME280;68002;52.310;6.990;2023-06-22T06:52:15;101484.78;;;23.46;58.15
78685;BME280;68002;52.310;6.990;2023-06-22T06:54:40;101479.31;;;23.52;56.35
78685;BME280;68002;52.310;6.990;2023-06-22T06:57:05;101486.91;;;23.70;56.09
78685;BME280;68002;52.310;6.990;2023-06-22T06:59:31;101494.69;;;23.99;55.43
78685;BME280;68002;52.310;6.990;2023-06-22T07:01:56;101491.16;;;24.05;54.70
78685;BME280;68002;52.310;6.990;2023-06-22T07:04:21;101494.50;;;24.33;54.77
78685;BME280;68002;52.310;6.990;2023-06-22T07:06:46;101493.03;;;24.37;54.14
78685;BME280;68002;52.310;6.990;2023-06-22T07:09:12;101485.41;;;24.46;53.77
78685;BME280;68002;52.310;6.990;2023-06-22T07:11:37;101488.78;;;24.48;53.67
78685;BME280;68002;52.310;6.990;2023-06-22T07:14:02;101475.31;;;24.40;53.81
78685;BME280;68002;52.310;6.990;2023-06-22T07:16:27;101477.66;;;24.43;53.36
78685;BME280;68002;52.310;6.990;2023-06-22T07:18:53;101476.78;;;24.36;53.33
78685;BME280;68002;52.310;6.990;2023-06-22T07:21:18;101484.16;;;24.42;53.36
78685;BME280;68002;52.310;6.990;2023-06-22T07:23:43;101479.50;;;24.49;52.98
78685;BME280;68002;52.310;6.990;2023-06-22T07:26:08;101465.00;;;24.42;52.95
78685;BME280;68002;52.310;6.990;2023-06-22T07:28:34;101464.56;;;24.51;52.62
78685;BME280;68002;52.310;6.990;2023-06-22T07:30:59;101462.53;;;24.34;52.24
78685;BME280;68002;52.310;6.990;2023-06-22T07:33:24;101456.63;;;24.30;53.02
78685;BME280;68002;52.310;6.990;2023-06-22T07:35:49;101452.38;;;24.54;53.04
78685;BME280;68002;52.310;6.990;2023-06-22T07:38:14;101443.84;;;24.88;52.47
78685;BME280;68002;52.310;6.990;2023-06-22T07:40:40;101455.69;;;25.13;52.51
78685;BME280;68002;52.310;6.990;2023-06-22T07:43:05;101448.50;;;25.25;52.22
78685;BME280;68002;52.310;6.990;2023-06-22T07:45:30;101447.06;;;25.47;51.86
78685;BME280;68002;52.310;6.990;2023-06-22T07:47:55;101450.63;;;25.79;51.45
78685;BME280;68002;52.310;6.990;2023-06-22T07:50:21;101447.56;;;25.94;50.69
78685;BME280;68002;52.310;6.990;2023-06-22T07:52:46;101434.03;;;25.99;50.36
78685;BME280;68002;52.310;6.990;2023-06-22T07:55:11;101438.28;;;25.95;49.82
78685;BME280;68002;52.310;6.990;2023-06-22T07:57:36;101433.03;;;25.68;49.22
78685;BME280;68002;52.310;6.990;2023-06-22T08:00:04;101442.75;;;25.64;49.88
78685;BME280;68002;52.310;6.990;2023-06-22T08:02:30;101438.00;;;25.78;49.69
78685;BME280;68002;52.310;6.990;2023-06-22T08:04:55;101436.84;;;25.67;50.25
78685;BME280;68002;52.310;6.990;2023-06-22T08:07:20;101442.88;;;25.76;49.88
78685;BME280;68002;52.310;6.990;2023-06-22T08:09:47;101439.75;;;25.72;49.73
78685;BME280;68002;52.310;6.990;2023-06-22T08:12:12;101429.88;;;25.65;50.26
78685;BME280;68002;52.310;6.990;2023-06-22T08:14:38;101429.66;;;25.66;49.91
78685;BME280;68002;52.310;6.990;2023-06-22T08:17:03;101429.19;;;25.45;49.87
78685;BME280;68002;52.310;6.990;2023-06-22T08:19:29;101424.72;;;25.50;50.35
78685;BME280;68002;52.310;6.990;2023-06-22T08:21:54;101431.25;;;25.49;50.39
78685;BME280;68002;52.310;6.990;2023-06-22T08:24:19;101431.44;;;25.54;50.32
78685;BME280;68002;52.310;6.990;2023-06-22T08:26:44;101425.75;;;25.56;50.21
78685;BME280;68002;52.310;6.990;2023-06-22T08:29:10;101416.13;;;25.47;50.79
78685;BME280;68002;52.310;6.990;2023-06-22T08:31:35;101406.19;;;25.52;50.97
78685;BME280;68002;52.310;6.990;2023-06-22T08:34:00;101423.78;;;25.63;50.62
78685;BME280;68002;52.310;6.990;2023-06-22T08:36:26;101416.97;;;25.72;50.15
78685;BME280;68002;52.310;6.990;2023-06-22T08:38:51;101422.72;;;25.64;50.05
78685;BME280;68002;52.310;6.990;2023-06-22T08:41:17;101412.91;;;25.56;49.90
78685;BME280;68002;52.310;6.990;2023-06-22T08:43:43;101411.19;;;25.55;50.45
78685;BME280;68002;52.310;6.990;2023-06-22T08:46:08;101416.22;;;25.58;49.93
78685;BME280;68002;52.310;6.990;2023-06-22T08:48:33;101408.63;;;25.60;50.35
78685;BME280;68002;52.310;6.990;2023-06-22T08:50:58;101408.66;;;25.78;50.51
78685;BME280;68002;52.310;6.990;2023-06-22T08:53:24;101407.38;;;25.81;49.78
78685;BME280;68002;52.310;6.990;2023-06-22T08:55:49;101400.41;;;25.85;49.91
78685;BME280;68002;52.310;6.990;2023-06-22T08:58:14;101386.63;;;25.92;49.81
78685;BME280;68002;52.310;6.990;2023-06-22T09:00:39;101393.91;;;25.79;49.78
78685;BME280;68002;52.310;6.990;2023-06-22T09:03:05;101380.75;;;25.88;49.79
78685;BME280;68002;52.310;6.990;2023-06-22T09:05:30;101378.56;;;25.97;49.89
78685;BME280;68002;52.310;6.990;2023-06-22T09:07:58;101366.22;;;25.88;49.18
78685;BME280;68002;52.310;6.990;2023-06-22T09:10:23;101361.28;;;25.96;49.74
78685;BME280;68002;52.310;6.990;2023-06-22T09:12:48;101359.56;;;26.20;49.04
78685;BME280;68002;52.310;6.990;2023-06-22T09:15:13;101362.84;;;26.28;48.53
78685;BME280;68002;52.310;6.990;2023-06-22T09:17:40;101351.78;;;26.53;48.31
78685;BME280;68002;52.310;6.990;2023-06-22T09:20:06;101356.47;;;26.64;47.64
78685;BME280;68002;52.310;6.990;2023-06-22T09:22:32;101358.09;;;26.71;47.26
78685;BME280;68002;52.310;6.990;2023-06-22T09:24:58;101356.16;;;26.90;47.08
78685;BME280;68002;52.310;6.990;2023-06-22T09:27:23;101362.69;;;26.89;47.28
78685;BME280;68002;52.310;6.990;2023-06-22T09:29:49;101352.38;;;27.03;45.42
78685;BME280;68002;52.310;6.990;2023-06-22T09:32:14;101359.63;;;26.97;46.21
78685;BME280;68002;52.310;6.990;2023-06-22T09:34:40;101360.00;;;27.01;45.85
78685;BME280;68002;52.310;6.990;2023-06-22T09:37:05;101359.63;;;26.97;46.06
78685;BME280;68002;52.310;6.990;2023-06-22T09:39:30;101360.56;;;26.91;45.50
78685;BME280;68002;52.310;6.990;2023-06-22T09:42:00;101365.00;;;27.04;45.88
78685;BME280;68002;52.310;6.990;2023-06-22T09:44:25;101359.09;;;27.18;45.83
78685;BME280;68002;52.310;6.990;2023-06-22T09:46:51;101361.25;;;27.28;45.75
78685;BME280;68002;52.310;6.990;2023-06-22T09:49:16;101366.16;;;27.26;45.80
78685;BME280;68002;52.310;6.990;2023-06-22T09:51:41;101359.94;;;27.19;45.50
78685;BME280;68002;52.310;6.990;2023-06-22T09:54:06;101350.97;;;27.23;45.76
78685;BME280;68002;52.310;6.990;2023-06-22T09:56:32;101340.94;;;27.29;44.91
78685;BME280;68002;52.310;6.990;2023-06-22T09:58:57;101348.44;;;27.10;45.43
78685;BME280;68002;52.310;6.990;2023-06-22T10:01:22;101351.22;;;26.92;46.04
78685;BME280;68002;52.310;6.990;2023-06-22T10:03:47;101346.22;;;26.89;46.11
78685;BME280;68002;52.310;6.990;2023-06-22T10:06:12;101344.41;;;26.83;46.49
78685;BME280;68002;52.310;6.990;2023-06-22T10:08:38;101355.06;;;26.91;46.53
78685;BME280;68002;52.310;6.990;2023-06-22T10:11:03;101341.81;;;26.88;46.04
78685;BME280;68002;52.310;6.990;2023-06-22T10:13:29;101334.38;;;26.89;46.20
78685;BME280;68002;52.310;6.990;2023-06-22T10:15:54;101340.84;;;26.83;45.97
78685;BME280;68002;52.310;6.990;2023-06-22T10:18:20;101342.69;;;26.70;46.04
78685;BME280;68002;52.310;6.990;2023-06-22T10:20:50;101335.78;;;26.79;46.18
78685;BME280;68002;52.310;6.990;2023-06-22T10:23:15;101338.47;;;26.86;46.19
78685;BME280;68002;52.310;6.990;2023-06-22T10:25:40;101340.28;;;27.04;45.88
78685;BME280;68002;52.310;6.990;2023-06-22T10:28:06;101337.66;;;26.97;46.04
78685;BME280;68002;52.310;6.990;2023-06-22T10:30:31;101335.16;;;26.96;46.05
78685;BME280;68002;52.310;6.990;2023-06-22T10:32:56;101324.63;;;26.93;46.20
78685;BME280;68002;52.310;6.990;2023-06-22T10:35:21;101325.94;;;26.90;46.25
78685;BME280;68002;52.310;6.990;2023-06-22T10:37:47;101331.03;;;26.87;46.37
78685;BME280;68002;52.310;6.990;2023-06-22T10:40:13;101328.44;;;26.92;46.60
78685;BME280;68002;52.310;6.990;2023-06-22T10:42:38;101320.81;;;26.94;46.60
78685;BME280;68002;52.310;6.990;2023-06-22T10:45:04;101318.44;;;27.09;46.31
78685;BME280;68002;52.310;6.990;2023-06-22T10:47:29;101319.06;;;27.11;46.54
78685;BME280;68002;52.310;6.990;2023-06-22T10:49:55;101325.97;;;27.02;46.63
78685;BME280;68002;52.310;6.990;2023-06-22T10:52:20;101326.91;;;26.96;46.89
78685;BME280;68002;52.310;6.990;2023-06-22T10:54:45;101334.72;;;27.10;46.86
78685;BME280;68002;52.310;6.990;2023-06-22T10:57:10;101328.94;;;27.00;46.40
78685;BME280;68002;52.310;6.990;2023-06-22T10:59:36;101327.97;;;26.95;46.77
78685;BME280;68002;52.310;6.990;2023-06-22T11:02:01;101330.97;;;26.93;46.65
78685;BME280;68002;52.310;6.990;2023-06-22T11:04:26;101326.88;;;26.84;47.16
78685;BME280;68002;52.310;6.990;2023-06-22T11:06:51;101327.44;;;26.74;46.61
78685;BME280;68002;52.310;6.990;2023-06-22T11:09:17;101328.78;;;26.65;46.54
78685;BME280;68002;52.310;6.990;2023-06-22T11:11:42;101322.56;;;26.58;46.84
78685;BME280;68002;52.310;6.990;2023-06-22T11:14:07;101314.56;;;26.57;46.92
78685;BME280;68002;52.310;6.990;2023-06-22T11:16:32;101307.69;;;26.66;47.51
78685;BME280;68002;52.310;6.990;2023-06-22T11:18:58;101304.88;;;26.54;47.56
78685;BME280;68002;52.310;6.990;2023-06-22T11:21:23;101306.47;;;26.62;47.44
78685;BME280;68002;52.310;6.990;2023-06-22T11:23:48;101304.25;;;26.70;47.69
78685;BME280;68002;52.310;6.990;2023-06-22T11:26:13;101302.47;;;26.76;47.05
78685;BME280;68002;52.310;6.990;2023-06-22T11:28:39;101294.44;;;26.45;47.70
78685;BME280;68002;52.310;6.990;2023-06-22T11:31:04;101298.97;;;26.39;47.81
78685;BME280;68002;52.310;6.990;2023-06-22T11:33:29;101296.44;;;26.38;47.78
78685;BME280;68002;52.310;6.990;2023-06-22T11:35:54;101296.06;;;26.34;48.15
78685;BME280;68002;52.310;6.990;2023-06-22T11:38:19;101278.31;;;26.37;48.08
78685;BME280;68002;52.310;6.990;2023-06-22T11:40:45;101275.78;;;26.35;48.08
78685;BME280;68002;52.310;6.990;2023-06-22T11:43:10;101274.59;;;26.31;48.23
78685;BME280;68002;52.310;6.990;2023-06-22T11:45:35;101260.34;;;26.23;48.34
78685;BME280;68002;52.310;6.990;2023-06-22T11:48:00;101258.00;;;26.08;48.70
78685;BME280;68002;52.310;6.990;2023-06-22T11:50:26;101256.25;;;25.96;49.31
78685;BME280;68002;52.310;6.990;2023-06-22T11:52:51;101251.38;;;25.79;49.61
78685;BME280;68002;52.310;6.990;2023-06-22T11:55:16;101247.63;;;25.74;49.79
78685;BME280;68002;52.310;6.990;2023-06-22T11:57:59;101238.66;;;25.67;50.64
78685;BME280;68002;52.310;6.990;2023-06-22T12:00:25;101253.22;;;25.67;50.32
78685;BME280;68002;52.310;6.990;2023-06-22T12:02:51;101257.00;;;25.66;50.87
78685;BME280;68002;52.310;6.990;2023-06-22T12:05:16;101253.66;;;25.64;50.62
78685;BME280;68002;52.310;6.990;2023-06-22T12:07:41;101244.00;;;25.62;50.89
78685;BME280;68002;52.310;6.990;2023-06-22T12:10:07;101249.25;;;25.63;50.77
78685;BME280;68002;52.310;6.990;2023-06-22T12:12:32;101248.91;;;25.53;50.53
78685;BME280;68002;52.310;6.990;2023-06-22T12:14:57;101237.66;;;25.37;50.79
78685;BME280;68002;52.310;6.990;2023-06-22T12:17:22;101240.22;;;25.38;51.19
78685;BME280;68002;52.310;6.990;2023-06-22T12:19:48;101244.06;;;25.31;51.71
78685;BME280;68002;52.310;6.990;2023-06-22T12:22:13;101245.75;;;25.32;51.42
78685;BME280;68002;52.310;6.990;2023-06-22T12:24:38;101236.69;;;25.31;51.75
78685;BME280;68002;52.310;6.990;2023-06-22T12:27:04;101243.88;;;25.26;51.85
78685;BME280;68002;52.310;6.990;2023-06-22T12:29:29;101236.91;;;25.30;51.18
78685;BME280;68002;52.310;6.990;2023-06-22T12:31:54;101245.19;;;25.23;51.67
78685;BME280;68002;52.310;6.990;2023-06-22T12:34:19;101240.16;;;25.20;52.08
78685;BME280;68002;52.310;6.990;2023-06-22T12:36:45;101236.88;;;25.12;52.17
78685;BME280;68002;52.310;6.990;2023-06-22T12:39:10;101241.97;;;25.08;52.95
78685;BME280;68002;52.310;6.990;2023-06-22T12:41:35;101239.94;;;24.97;53.03
78685;BME280;68002;52.310;6.990;2023-06-22T12:44:00;101252.56;;;24.98;53.05
78685;BME280;68002;52.310;6.990;2023-06-22T12:46:25;101250.91;;;24.97;52.85
78685;BME280;68002;52.310;6.990;2023-06-22T12:48:51;101266.25;;;24.98;52.75
78685;BME280;68002;52.310;6.990;2023-06-22T12:51:22;101264.41;;;24.92;53.50